sensor_id;sensor_type;location;lat;lon;timestamp;temperature;humidity
20182;DHT22;10250;50.756;6.172;2023-03-22T00:01:29;11.60;1.00
20182;DHT22;10250;50.756;6.172;2023-03-22T00:03:31;11.70;1.00
20182;DHT22;10250;50.756;6.172;2023-03-22T00:05:32;11.70;1.00
20182;DHT22;10250;50.756;6.172;2023-03-22T00:07:32;11.70;1.00
20182;DHT22;10250;50.756;6.172;2023-03-22T00:09:33;11.70;1.00
20182;DHT22;10250;50.756;6.172;2023-03-22T00:11:34;11.70;1.00
20182;DHT22;10250;50.756;6.172;2023-03-22T00:13:35;11.60;1.00
20182;DHT22;10250;50.756;6.172;2023-03-22T00:15:36;11.60;1.00
20182;DHT22;10250;50.756;6.172;2023-03-22T00:17:37;11.70;1.00
20182;DHT22;10250;50.756;6.172;2023-03-22T00:19:37;11.70;1.00
20182;DHT22;10250;50.756;6.172;2023-03-22T00:21:41;11.60;1.00
20182;DHT22;10250;50.756;6.172;2023-03-22T00:23:42;11.70;1.00
20182;DHT22;10250;50.756;6.172;2023-03-22T00:25:43;11.60;1.00
20182;DHT22;10250;50.756;6.172;2023-03-22T00:27:44;11.60;1.00
20182;DHT22;10250;50.756;6.172;2023-03-22T00:29:45;11.60;1.00
20182;DHT22;10250;50.756;6.172;2023-03-22T00:31:45;11.60;1.00
20182;DHT22;10250;50.756;6.172;2023-03-22T00:33:46;11.50;1.00
20182;DHT22;10250;50.756;6.172;2023-03-22T00:35:51;11.50;1.00
20182;DHT22;10250;50.756;6.172;2023-03-22T00:37:52;11.40;1.00
20182;DHT22;10250;50.756;6.172;2023-03-22T00:39:52;11.50;1.00
20182;DHT22;10250;50.756;6.172;2023-03-22T00:41:53;11.50;1.00
20182;DHT22;10250;50.756;6.172;2023-03-22T00:43:53;11.50;1.00
20182;DHT22;10250;50.756;6.172;2023-03-22T00:45:54;11.50;1.00
20182;DHT22;10250;50.756;6.172;2023-03-22T00:47:55;11.60;1.00
20182;DHT22;10250;50.756;6.172;2023-03-22T00:49:55;11.60;1.00
20182;DHT22;10250;50.756;6.172;2023-03-22T00:51:56;11.60;1.00
20182;DHT22;10250;50.756;6.172;2023-03-22T00:53:57;11.50;1.00
20182;DHT22;10250;50.756;6.172;2023-03-22T00:55:58;11.50;1.00
20182;DHT22;10250;50.756;6.172;2023-03-22T00:57:58;11.60;1.00
20182;DHT22;10250;50.756;6.172;2023-03-22T00:59:59;11.60;1.00
20182;DHT22;10250;50.756;6.172;2023-03-22T01:02:08;11.60;1.00
20182;DHT22;10250;50.756;6.172;2023-03-22T01:04:12;11.60;1.00
20182;DHT22;10250;50.756;6.172;2023-03-22T01:06:17;11.50;1.00
20182;DHT22;10250;50.756;6.172;2023-03-22T01:08:18;11.50;1.00
20182;DHT22;10250;50.756;6.172;2023-03-22T01:10:18;11.50;1.00
20182;DHT22;10250;50.756;6.172;2023-03-22T01:12:19;11.50;1.00
20182;DHT22;10250;50.756;6.172;2023-03-22T01:14:20;11.50;1.00
20182;DHT22;10250;50.756;6.172;2023-03-22T01:16:21;11.60;1.00
20182;DHT22;10250;50.756;6.172;2023-03-22T01:18:22;11.50;1.00
20182;DHT22;10250;50.756;6.172;2023-03-22T01:20:22;11.50;1.00
20182;DHT22;10250;50.756;6.172;2023-03-22T01:22:23;11.50;1.00
20182;DHT22;10250;50.756;6.172;2023-03-22T01:24:24;11.50;1.00
20182;DHT22;10250;50.756;6.172;2023-03-22T01:26:24;11.50;1.00
20182;DHT22;10250;50.756;6.172;2023-03-22T01:28:25;11.50;1.00
20182;DHT22;10250;50.756;6.172;2023-03-22T01:30:26;11.50;1.00
20182;DHT22;10250;50.756;6.172;2023-03-22T01:32:26;11.60;1.00
20182;DHT22;10250;50.756;6.172;2023-03-22T01:34:27;11.50;1.00
20182;DHT22;10250;50.756;6.172;2023-03-22T01:36:28;11.50;1.00
20182;DHT22;10250;50.756;6.172;2023-03-22T01:38:28;11.40;1.00
20182;DHT22;10250;50.756;6.172;2023-03-22T01:40:30;11.40;1.00
20182;DHT22;10250;50.756;6.172;2023-03-22T01:42:31;11.40;1.00
20182;DHT22;10250;50.756;6.172;2023-03-22T01:44:32;11.50;1.00
20182;DHT22;10250;50.756;6.172;2023-03-22T01:46:32;11.40;1.00
20182;DHT22;10250;50.756;6.172;2023-03-22T01:48:41;11.40;1.00
20182;DHT22;10250;50.756;6.172;2023-03-22T01:50:53;11.40;1.00
20182;DHT22;10250;50.756;6.172;2023-03-22T01:52:56;11.40;1.00
20182;DHT22;10250;50.756;6.172;2023-03-22T01:54:58;11.40;1.00
20182;DHT22;10250;50.756;6.172;2023-03-22T01:56:59;11.40;1.00
20182;DHT22;10250;50.756;6.172;2023-03-22T01:59:01;11.40;1.00
20182;DHT22;10250;50.756;6.172;2023-03-22T02:01:03;11.40;1.00
20182;DHT22;10250;50.756;6.172;2023-03-22T02:03:05;11.40;1.00
20182;DHT22;10250;50.756;6.172;2023-03-22T02:05:06;11.40;1.00
20182;DHT22;10250;50.756;6.172;2023-03-22T02:07:10;11.40;1.00
20182;DHT22;10250;50.756;6.172;2023-03-22T02:09:15;11.40;1.00
20182;DHT22;10250;50.756;6.172;2023-03-22T02:11:28;11.30;1.00
20182;DHT22;10250;50.756;6.172;2023-03-22T02:13:59;11.30;1.00
20182;DHT22;10250;50.756;6.172;2023-03-22T02:18:32;11.30;1.00
20182;DHT22;10250;50.756;6.172;2023-03-22T02:34:24;11.40;1.00
20182;DHT22;10250;50.756;6.172;2023-03-22T02:44:16;11.30;1.00
20182;DHT22;10250;50.756;6.172;2023-03-22T02:46:34;11.30;1.00
20182;DHT22;10250;50.756;6.172;2023-03-22T02:51:40;11.20;42.70
20182;DHT22;10250;50.756;6.172;2023-03-22T02:54:00;11.30;1.00
20182;DHT22;10250;50.756;6.172;2023-03-22T02:56:04;11.20;1.00
20182;DHT22;10250;50.756;6.172;2023-03-22T03:00:58;11.30;1.00
20182;DHT22;10250;50.756;6.172;2023-03-22T03:03:05;11.20;1.00
20182;DHT22;10250;50.756;6.172;2023-03-22T03:05:11;11.30;1.00
20182;DHT22;10250;50.756;6.172;2023-03-22T03:07:17;11.30;1.00
20182;DHT22;10250;50.756;6.172;2023-03-22T03:09:19;11.30;1.00
20182;DHT22;10250;50.756;6.172;2023-03-22T03:11:20;11.30;1.00
20182;DHT22;10250;50.756;6.172;2023-03-22T03:13:21;11.20;1.00
20182;DHT22;10250;50.756;6.172;2023-03-22T03:15:22;11.20;1.00
20182;DHT22;10250;50.756;6.172;2023-03-22T03:19:56;11.10;1.00
20182;DHT22;10250;50.756;6.172;2023-03-22T03:30:29;11.10;1.00
20182;DHT22;10250;50.756;6.172;2023-03-22T03:32:39;11.10;1.00
20182;DHT22;10250;50.756;6.172;2023-03-22T03:34:48;11.10;1.00
20182;DHT22;10250;50.756;6.172;2023-03-22T03:36:56;11.10;1.00
20182;DHT22;10250;50.756;6.172;2023-03-22T03:38:59;11.10;1.00
20182;DHT22;10250;50.756;6.172;2023-03-22T03:41:08;11.10;1.00
20182;DHT22;10250;50.756;6.172;2023-03-22T03:43:10;11.20;1.00
20182;DHT22;10250;50.756;6.172;2023-03-22T03:45:12;11.10;1.00
20182;DHT22;10250;50.756;6.172;2023-03-22T03:47:13;11.10;1.00
20182;DHT22;10250;50.756;6.172;2023-03-22T03:49:15;11.10;31.70
20182;DHT22;10250;50.756;6.172;2023-03-22T03:51:17;11.10;1.00
20182;DHT22;10250;50.756;6.172;2023-03-22T03:53:18;11.10;1.00
20182;DHT22;10250;50.756;6.172;2023-03-22T03:55:19;11.10;1.00
20182;DHT22;10250;50.756;6.172;2023-03-22T03:57:20;11.00;5.30
20182;DHT22;10250;50.756;6.172;2023-03-22T03:59:21;11.10;27.20
20182;DHT22;10250;50.756;6.172;2023-03-22T04:01:21;11.10;50.30
20182;DHT22;10250;50.756;6.172;2023-03-22T04:03:23;11.10;56.80
20182;DHT22;10250;50.756;6.172;2023-03-22T04:05:24;11.20;5.70
20182;DHT22;10250;50.756;6.172;2023-03-22T04:07:24;11.10;14.60
20182;DHT22;10250;50.756;6.172;2023-03-22T04:09:27;11.20;1.00
20182;DHT22;10250;50.756;6.172;2023-03-22T04:11:28;11.20;1.00
20182;DHT22;10250;50.756;6.172;2023-03-22T04:13:28;11.20;4.80
20182;DHT22;10250;50.756;6.172;2023-03-22T04:15:29;11.10;29.10
20182;DHT22;10250;50.756;6.172;2023-03-22T04:17:29;11.20;1.00
20182;DHT22;10250;50.756;6.172;2023-03-22T04:19:31;11.20;1.00
20182;DHT22;10250;50.756;6.172;2023-03-22T04:21:32;11.20;9.30
20182;DHT22;10250;50.756;6.172;2023-03-22T04:23:32;11.10;5.40
20182;DHT22;10250;50.756;6.172;2023-03-22T04:25:33;11.00;12.10
20182;DHT22;10250;50.756;6.172;2023-03-22T04:27:38;11.10;16.20
20182;DHT22;10250;50.756;6.172;2023-03-22T04:29:39;11.10;73.40
20182;DHT22;10250;50.756;6.172;2023-03-22T04:31:39;11.10;96.90
20182;DHT22;10250;50.756;6.172;2023-03-22T04:33:40;11.10;90.70
20182;DHT22;10250;50.756;6.172;2023-03-22T04:35:46;11.10;70.60
20182;DHT22;10250;50.756;6.172;2023-03-22T04:37:46;11.10;31.20
20182;DHT22;10250;50.756;6.172;2023-03-22T04:39:48;11.20;99.90
20182;DHT22;10250;50.756;6.172;2023-03-22T04:41:48;11.20;99.90
20182;DHT22;10250;50.756;6.172;2023-03-22T04:43:49;11.20;99.90
20182;DHT22;10250;50.756;6.172;2023-03-22T04:45:50;11.20;99.90
20182;DHT22;10250;50.756;6.172;2023-03-22T04:47:54;11.10;99.90
20182;DHT22;10250;50.756;6.172;2023-03-22T04:49:54;11.20;99.90
20182;DHT22;10250;50.756;6.172;2023-03-22T04:51:55;11.20;99.90
20182;DHT22;10250;50.756;6.172;2023-03-22T04:53:57;11.20;99.90
20182;DHT22;10250;50.756;6.172;2023-03-22T04:55:57;11.20;99.90
20182;DHT22;10250;50.756;6.172;2023-03-22T04:57:59;11.20;99.90
20182;DHT22;10250;50.756;6.172;2023-03-22T04:59:59;11.10;99.90
20182;DHT22;10250;50.756;6.172;2023-03-22T05:04:01;11.10;1.00
20182;DHT22;10250;50.756;6.172;2023-03-22T05:06:03;11.10;1.00
20182;DHT22;10250;50.756;6.172;2023-03-22T05:08:05;11.10;1.00
20182;DHT22;10250;50.756;6.172;2023-03-22T05:10:06;11.00;1.00
20182;DHT22;10250;50.756;6.172;2023-03-22T05:12:07;11.10;1.00
20182;DHT22;10250;50.756;6.172;2023-03-22T05:14:08;11.00;1.00
20182;DHT22;10250;50.756;6.172;2023-03-22T05:16:10;11.00;1.00
20182;DHT22;10250;50.756;6.172;2023-03-22T05:18:10;11.00;1.00
20182;DHT22;10250;50.756;6.172;2023-03-22T05:20:13;11.10;1.00
20182;DHT22;10250;50.756;6.172;2023-03-22T05:22:14;11.10;1.00
20182;DHT22;10250;50.756;6.172;2023-03-22T05:24:14;11.10;1.00
20182;DHT22;10250;50.756;6.172;2023-03-22T05:26:15;11.10;1.00
20182;DHT22;10250;50.756;6.172;2023-03-22T05:28:20;11.10;1.00
20182;DHT22;10250;50.756;6.172;2023-03-22T05:30:21;11.20;1.00
20182;DHT22;10250;50.756;6.172;2023-03-22T05:32:22;11.20;1.00
20182;DHT22;10250;50.756;6.172;2023-03-22T05:34:24;11.10;1.00
20182;DHT22;10250;50.756;6.172;2023-03-22T05:36:35;11.10;1.00
20182;DHT22;10250;50.756;6.172;2023-03-22T05:38:38;11.20;1.00
20182;DHT22;10250;50.756;6.172;2023-03-22T05:40:39;11.10;1.00
20182;DHT22;10250;50.756;6.172;2023-03-22T05:42:39;11.10;1.00
20182;DHT22;10250;50.756;6.172;2023-03-22T05:44:40;11.10;1.00
20182;DHT22;10250;50.756;6.172;2023-03-22T05:46:41;11.10;1.00
20182;DHT22;10250;50.756;6.172;2023-03-22T05:48:41;11.10;1.00
20182;DHT22;10250;50.756;6.172;2023-03-22T05:50:42;11.00;1.00
20182;DHT22;10250;50.756;6.172;2023-03-22T05:52:43;11.00;1.00
20182;DHT22;10250;50.756;6.172;2023-03-22T05:54:44;11.00;1.00
20182;DHT22;10250;50.756;6.172;2023-03-22T05:56:44;11.00;1.00
20182;DHT22;10250;50.756;6.172;2023-03-22T05:58:46;11.00;1.00
20182;DHT22;10250;50.756;6.172;2023-03-22T06:00:47;11.00;1.00
20182;DHT22;10250;50.756;6.172;2023-03-22T06:02:49;11.10;1.00
20182;DHT22;10250;50.756;6.172;2023-03-22T06:04:53;11.10;1.00
20182;DHT22;10250;50.756;6.172;2023-03-22T06:06:54;11.00;1.00
20182;DHT22;10250;50.756;6.172;2023-03-22T06:08:54;11.10;1.00
20182;DHT22;10250;50.756;6.172;2023-03-22T06:10:55;11.10;1.00
20182;DHT22;10250;50.756;6.172;2023-03-22T06:12:55;11.00;1.00
20182;DHT22;10250;50.756;6.172;2023-03-22T06:14:56;11.10;1.00
20182;DHT22;10250;50.756;6.172;2023-03-22T06:16:57;11.10;99.90
20182;DHT22;10250;50.756;6.172;2023-03-22T06:18:57;11.00;1.00
20182;DHT22;10250;50.756;6.172;2023-03-22T06:20:58;10.90;1.00
20182;DHT22;10250;50.756;6.172;2023-03-22T06:22:58;10.90;1.00
20182;DHT22;10250;50.756;6.172;2023-03-22T06:24:59;11.00;1.00
20182;DHT22;10250;50.756;6.172;2023-03-22T06:27:00;10.90;1.00
20182;DHT22;10250;50.756;6.172;2023-03-22T06:29:01;10.90;1.00
20182;DHT22;10250;50.756;6.172;2023-03-22T06:31:07;10.90;1.00
20182;DHT22;10250;50.756;6.172;2023-03-22T06:33:08;11.00;1.00
20182;DHT22;10250;50.756;6.172;2023-03-22T06:35:08;11.00;1.00
20182;DHT22;10250;50.756;6.172;2023-03-22T06:37:09;11.00;1.00
20182;DHT22;10250;50.756;6.172;2023-03-22T06:39:10;11.10;99.90
20182;DHT22;10250;50.756;6.172;2023-03-22T06:41:10;11.00;99.90
20182;DHT22;10250;50.756;6.172;2023-03-22T06:43:11;11.00;99.90
20182;DHT22;10250;50.756;6.172;2023-03-22T06:45:12;11.10;99.90
20182;DHT22;10250;50.756;6.172;2023-03-22T06:47:15;10.90;99.90
20182;DHT22;10250;50.756;6.172;2023-03-22T06:49:16;10.90;99.90
20182;DHT22;10250;50.756;6.172;2023-03-22T06:51:18;11.00;99.90
20182;DHT22;10250;50.756;6.172;2023-03-22T06:53:19;11.00;99.90
20182;DHT22;10250;50.756;6.172;2023-03-22T06:55:19;10.90;99.90
20182;DHT22;10250;50.756;6.172;2023-03-22T06:57:20;11.00;99.90
20182;DHT22;10250;50.756;6.172;2023-03-22T06:59:20;11.10;99.90
20182;DHT22;10250;50.756;6.172;2023-03-22T07:01:21;11.10;99.90
20182;DHT22;10250;50.756;6.172;2023-03-22T07:03:22;11.10;99.90
20182;DHT22;10250;50.756;6.172;2023-03-22T07:05:23;11.10;99.90
20182;DHT22;10250;50.756;6.172;2023-03-22T07:07:24;11.00;99.90
20182;DHT22;10250;50.756;6.172;2023-03-22T07:09:25;11.00;99.90
20182;DHT22;10250;50.756;6.172;2023-03-22T07:11:26;11.00;99.90
20182;DHT22;10250;50.756;6.172;2023-03-22T07:13:27;11.20;99.90
20182;DHT22;10250;50.756;6.172;2023-03-22T07:15:29;11.10;99.90
20182;DHT22;10250;50.756;6.172;2023-03-22T07:17:29;11.00;99.90
20182;DHT22;10250;50.756;6.172;2023-03-22T07:19:30;11.00;99.90
20182;DHT22;10250;50.756;6.172;2023-03-22T07:21:31;11.20;99.90
20182;DHT22;10250;50.756;6.172;2023-03-22T07:23:32;11.10;99.90
20182;DHT22;10250;50.756;6.172;2023-03-22T07:25:33;11.20;99.90
20182;DHT22;10250;50.756;6.172;2023-03-22T07:27:33;11.10;99.90
20182;DHT22;10250;50.756;6.172;2023-03-22T07:29:34;11.20;99.90
20182;DHT22;10250;50.756;6.172;2023-03-22T07:31:35;11.20;99.90
20182;DHT22;10250;50.756;6.172;2023-03-22T07:33:39;11.20;99.90
20182;DHT22;10250;50.756;6.172;2023-03-22T07:35:40;11.20;99.90
20182;DHT22;10250;50.756;6.172;2023-03-22T07:37:41;11.30;99.90
20182;DHT22;10250;50.756;6.172;2023-03-22T07:39:41;11.30;99.90
20182;DHT22;10250;50.756;6.172;2023-03-22T07:41:42;11.30;99.90
20182;DHT22;10250;50.756;6.172;2023-03-22T07:43:43;11.40;99.90
20182;DHT22;10250;50.756;6.172;2023-03-22T07:45:43;11.30;99.90
20182;DHT22;10250;50.756;6.172;2023-03-22T07:47:44;11.40;99.90
20182;DHT22;10250;50.756;6.172;2023-03-22T07:49:45;11.40;99.90
20182;DHT22;10250;50.756;6.172;2023-03-22T07:51:46;11.50;99.90
20182;DHT22;10250;50.756;6.172;2023-03-22T07:53:46;11.40;99.90
20182;DHT22;10250;50.756;6.172;2023-03-22T07:55:47;11.40;99.90
20182;DHT22;10250;50.756;6.172;2023-03-22T07:57:48;11.30;99.90
20182;DHT22;10250;50.756;6.172;2023-03-22T07:59:48;11.30;99.90
20182;DHT22;10250;50.756;6.172;2023-03-22T08:01:49;11.20;99.90
20182;DHT22;10250;50.756;6.172;2023-03-22T08:03:50;11.20;99.90
20182;DHT22;10250;50.756;6.172;2023-03-22T08:05:50;11.30;99.90
20182;DHT22;10250;50.756;6.172;2023-03-22T08:07:51;11.30;99.90
20182;DHT22;10250;50.756;6.172;2023-03-22T08:09:53;11.20;99.90
20182;DHT22;10250;50.756;6.172;2023-03-22T08:11:54;11.20;99.90
20182;DHT22;10250;50.756;6.172;2023-03-22T08:13:54;11.30;99.90
20182;DHT22;10250;50.756;6.172;2023-03-22T08:15:55;11.30;99.90
20182;DHT22;10250;50.756;6.172;2023-03-22T08:17:56;11.30;99.90
20182;DHT22;10250;50.756;6.172;2023-03-22T08:19:57;11.20;99.90
20182;DHT22;10250;50.756;6.172;2023-03-22T08:21:58;11.20;99.90
20182;DHT22;10250;50.756;6.172;2023-03-22T08:23:59;11.30;99.90
20182;DHT22;10250;50.756;6.172;2023-03-22T08:25:59;11.20;99.90
20182;DHT22;10250;50.756;6.172;2023-03-22T08:28:00;11.30;98.80
20182;DHT22;10250;50.756;6.172;2023-03-22T08:30:01;11.40;93.00
20182;DHT22;10250;50.756;6.172;2023-03-22T08:32:03;11.40;85.50
20182;DHT22;10250;50.756;6.172;2023-03-22T08:34:04;11.40;87.50
20182;DHT22;10250;50.756;6.172;2023-03-22T08:36:11;11.40;74.00
20182;DHT22;10250;50.756;6.172;2023-03-22T08:38:12;11.60;85.30
20182;DHT22;10250;50.756;6.172;2023-03-22T08:40:13;11.60;66.70
20182;DHT22;10250;50.756;6.172;2023-03-22T08:42:13;11.70;59.30
20182;DHT22;10250;50.756;6.172;2023-03-22T08:44:14;11.80;59.50
20182;DHT22;10250;50.756;6.172;2023-03-22T08:46:15;11.80;50.20
20182;DHT22;10250;50.756;6.172;2023-03-22T08:48:16;11.80;31.10
20182;DHT22;10250;50.756;6.172;2023-03-22T08:50:16;11.80;27.10
20182;DHT22;10250;50.756;6.172;2023-03-22T08:52:17;11.90;29.30
20182;DHT22;10250;50.756;6.172;2023-03-22T08:54:17;12.10;27.10
20182;DHT22;10250;50.756;6.172;2023-03-22T08:56:18;12.10;15.80
20182;DHT22;10250;50.756;6.172;2023-03-22T08:58:19;12.20;7.30
20182;DHT22;10250;50.756;6.172;2023-03-22T09:00:20;12.20;1.00
20182;DHT22;10250;50.756;6.172;2023-03-22T09:02:20;12.30;4.80
20182;DHT22;10250;50.756;6.172;2023-03-22T09:04:21;12.20;1.00
20182;DHT22;10250;50.756;6.172;2023-03-22T09:06:22;12.20;1.00
20182;DHT22;10250;50.756;6.172;2023-03-22T09:08:23;12.10;1.00
20182;DHT22;10250;50.756;6.172;2023-03-22T09:10:23;12.10;1.00
20182;DHT22;10250;50.756;6.172;2023-03-22T09:12:24;12.00;1.00
20182;DHT22;10250;50.756;6.172;2023-03-22T09:14:25;12.00;1.00
20182;DHT22;10250;50.756;6.172;2023-03-22T09:16:26;12.00;1.00
20182;DHT22;10250;50.756;6.172;2023-03-22T09:18:26;12.00;1.00
20182;DHT22;10250;50.756;6.172;2023-03-22T09:20:27;12.00;1.00
20182;DHT22;10250;50.756;6.172;2023-03-22T09:22:27;12.00;1.00
20182;DHT22;10250;50.756;6.172;2023-03-22T09:24:28;12.10;1.00
20182;DHT22;10250;50.756;6.172;2023-03-22T09:26:29;12.10;1.00
20182;DHT22;10250;50.756;6.172;2023-03-22T09:28:30;12.10;1.00
20182;DHT22;10250;50.756;6.172;2023-03-22T09:30:30;12.00;1.00
20182;DHT22;10250;50.756;6.172;2023-03-22T09:32:31;12.00;2.40
20182;DHT22;10250;50.756;6.172;2023-03-22T09:34:31;12.00;1.00
20182;DHT22;10250;50.756;6.172;2023-03-22T09:36:32;12.00;1.00
20182;DHT22;10250;50.756;6.172;2023-03-22T09:38:33;12.00;1.00
20182;DHT22;10250;50.756;6.172;2023-03-22T09:40:38;12.00;1.00
20182;DHT22;10250;50.756;6.172;2023-03-22T09:42:46;12.10;1.00
20182;DHT22;10250;50.756;6.172;2023-03-22T09:44:48;12.20;1.00
20182;DHT22;10250;50.756;6.172;2023-03-22T09:46:53;12.30;1.00
20182;DHT22;10250;50.756;6.172;2023-03-22T09:48:56;12.20;1.00
20182;DHT22;10250;50.756;6.172;2023-03-22T09:51:00;12.20;1.00
20182;DHT22;10250;50.756;6.172;2023-03-22T09:53:01;12.30;1.00
20182;DHT22;10250;50.756;6.172;2023-03-22T09:55:05;12.30;1.00
20182;DHT22;10250;50.756;6.172;2023-03-22T09:59:23;12.30;1.00
20182;DHT22;10250;50.756;6.172;2023-03-22T10:06:20;12.50;1.00
20182;DHT22;10250;50.756;6.172;2023-03-22T10:08:32;12.50;1.00
20182;DHT22;10250;50.756;6.172;2023-03-22T10:10:35;12.40;1.00
20182;DHT22;10250;50.756;6.172;2023-03-22T10:14:54;12.30;1.00
20182;DHT22;10250;50.756;6.172;2023-03-22T10:16:59;12.20;1.00
20182;DHT22;10250;50.756;6.172;2023-03-22T10:19:33;12.20;1.00
20182;DHT22;10250;50.756;6.172;2023-03-22T10:21:35;12.20;1.00
20182;DHT22;10250;50.756;6.172;2023-03-22T10:23:43;12.20;1.00
20182;DHT22;10250;50.756;6.172;2023-03-22T10:25:46;12.10;1.00
20182;DHT22;10250;50.756;6.172;2023-03-22T10:27:48;12.10;1.00
20182;DHT22;10250;50.756;6.172;2023-03-22T10:29:54;12.20;1.00
20182;DHT22;10250;50.756;6.172;2023-03-22T10:31:58;12.20;1.00
20182;DHT22;10250;50.756;6.172;2023-03-22T10:34:23;12.10;1.00
20182;DHT22;10250;50.756;6.172;2023-03-22T10:36:30;12.00;1.00
20182;DHT22;10250;50.756;6.172;2023-03-22T10:38:35;12.00;1.00
20182;DHT22;10250;50.756;6.172;2023-03-22T10:40:37;12.10;1.00
20182;DHT22;10250;50.756;6.172;2023-03-22T10:42:40;12.20;1.00
20182;DHT22;10250;50.756;6.172;2023-03-22T10:45:06;12.30;1.00
20182;DHT22;10250;50.756;6.172;2023-03-22T10:47:08;12.20;1.00
20182;DHT22;10250;50.756;6.172;2023-03-22T10:49:21;12.20;1.00
20182;DHT22;10250;50.756;6.172;2023-03-22T10:51:36;12.20;1.00
20182;DHT22;10250;50.756;6.172;2023-03-22T10:53:45;12.20;1.00
20182;DHT22;10250;50.756;6.172;2023-03-22T10:55:47;12.30;1.00
20182;DHT22;10250;50.756;6.172;2023-03-22T10:58:10;12.20;1.00
20182;DHT22;10250;50.756;6.172;2023-03-22T11:00:15;12.30;1.00
20182;DHT22;10250;50.756;6.172;2023-03-22T11:04:20;12.40;1.00
20182;DHT22;10250;50.756;6.172;2023-03-22T11:06:25;12.50;1.00
20182;DHT22;10250;50.756;6.172;2023-03-22T11:08:26;12.50;1.00
20182;DHT22;10250;50.756;6.172;2023-03-22T11:10:31;12.40;1.00
20182;DHT22;10250;50.756;6.172;2023-03-22T11:12:35;12.40;1.00
20182;DHT22;10250;50.756;6.172;2023-03-22T11:14:43;12.40;1.00
20182;DHT22;10250;50.756;6.172;2023-03-22T11:16:57;12.30;1.00
20182;DHT22;10250;50.756;6.172;2023-03-22T11:19:00;12.30;1.00
20182;DHT22;10250;50.756;6.172;2023-03-22T11:21:06;12.30;1.00
20182;DHT22;10250;50.756;6.172;2023-03-22T11:23:11;12.30;1.00
20182;DHT22;10250;50.756;6.172;2023-03-22T11:25:21;12.30;1.00
20182;DHT22;10250;50.756;6.172;2023-03-22T11:29:23;12.30;1.00
20182;DHT22;10250;50.756;6.172;2023-03-22T11:31:24;12.40;1.00
20182;DHT22;10250;50.756;6.172;2023-03-22T11:33:25;12.40;1.00
20182;DHT22;10250;50.756;6.172;2023-03-22T11:35:29;12.30;1.00
20182;DHT22;10250;50.756;6.172;2023-03-22T11:37:30;12.30;1.00
20182;DHT22;10250;50.756;6.172;2023-03-22T11:39:30;12.30;1.00
20182;DHT22;10250;50.756;6.172;2023-03-22T11:41:35;12.40;1.00
20182;DHT22;10250;50.756;6.172;2023-03-22T11:43:45;12.40;1.00
20182;DHT22;10250;50.756;6.172;2023-03-22T11:45:52;12.40;1.00
20182;DHT22;10250;50.756;6.172;2023-03-22T11:48:22;12.40;1.00
20182;DHT22;10250;50.756;6.172;2023-03-22T11:50:28;12.50;1.00
20182;DHT22;10250;50.756;6.172;2023-03-22T11:52:30;12.50;1.00
20182;DHT22;10250;50.756;6.172;2023-03-22T11:54:33;12.50;1.00
20182;DHT22;10250;50.756;6.172;2023-03-22T11:56:40;12.50;1.00
20182;DHT22;10250;50.756;6.172;2023-03-22T11:58:42;12.50;1.00
20182;DHT22;10250;50.756;6.172;2023-03-22T12:00:43;12.60;1.00
20182;DHT22;10250;50.756;6.172;2023-03-22T12:05:10;12.60;1.00
20182;DHT22;10250;50.756;6.172;2023-03-22T12:07:19;12.60;1.00
20182;DHT22;10250;50.756;6.172;2023-03-22T12:09:31;12.60;1.00
20182;DHT22;10250;50.756;6.172;2023-03-22T12:11:40;12.70;1.00
20182;DHT22;10250;50.756;6.172;2023-03-22T12:13:53;12.70;1.00
20182;DHT22;10250;50.756;6.172;2023-03-22T12:15:59;12.70;1.00
20182;DHT22;10250;50.756;6.172;2023-03-22T12:18:04;12.70;1.00
20182;DHT22;10250;50.756;6.172;2023-03-22T12:22:20;12.50;1.00
20182;DHT22;10250;50.756;6.172;2023-03-22T12:24:26;12.50;1.00
20182;DHT22;10250;50.756;6.172;2023-03-22T12:26:28;12.50;1.00
20182;DHT22;10250;50.756;6.172;2023-03-22T12:29:01;12.60;1.00
20182;DHT22;10250;50.756;6.172;2023-03-22T12:31:03;12.60;1.00
20182;DHT22;10250;50.756;6.172;2023-03-22T12:33:43;12.60;1.00
20182;DHT22;10250;50.756;6.172;2023-03-22T12:35:45;12.60;1.00
20182;DHT22;10250;50.756;6.172;2023-03-22T12:37:50;12.60;1.00
20182;DHT22;10250;50.756;6.172;2023-03-22T12:39:58;12.60;1.00
20182;DHT22;10250;50.756;6.172;2023-03-22T12:42:16;12.60;1.00
20182;DHT22;10250;50.756;6.172;2023-03-22T12:44:28;12.60;1.00
20182;DHT22;10250;50.756;6.172;2023-03-22T12:46:52;12.60;1.00
20182;DHT22;10250;50.756;6.172;2023-03-22T12:49:01;12.70;1.00
20182;DHT22;10250;50.756;6.172;2023-03-22T12:51:08;12.80;1.00
20182;DHT22;10250;50.756;6.172;2023-03-22T12:53:15;12.80;1.00
20182;DHT22;10250;50.756;6.172;2023-03-22T12:57:29;12.70;1.00
20182;DHT22;10250;50.756;6.172;2023-03-22T12:59:30;12.80;1.00
20182;DHT22;10250;50.756;6.172;2023-03-22T13:01:53;12.80;1.00
20182;DHT22;10250;50.756;6.172;2023-03-22T13:03:55;12.80;1.00
20182;DHT22;10250;50.756;6.172;2023-03-22T13:06:06;12.90;1.00
20182;DHT22;10250;50.756;6.172;2023-03-22T13:11:05;12.90;1.00
20182;DHT22;10250;50.756;6.172;2023-03-22T13:15:32;12.80;1.00
20182;DHT22;10250;50.756;6.172;2023-03-22T13:17:39;12.90;1.00
20182;DHT22;10250;50.756;6.172;2023-03-22T13:19:54;12.80;1.00
20182;DHT22;10250;50.756;6.172;2023-03-22T13:24:19;12.80;1.00
20182;DHT22;10250;50.756;6.172;2023-03-22T13:28:57;12.80;1.00
20182;DHT22;10250;50.756;6.172;2023-03-22T13:30:58;12.80;1.00
20182;DHT22;10250;50.756;6.172;2023-03-22T13:35:03;12.80;1.00
20182;DHT22;10250;50.756;6.172;2023-03-22T13:37:09;12.80;1.00
20182;DHT22;10250;50.756;6.172;2023-03-22T13:39:14;12.80;1.00
20182;DHT22;10250;50.756;6.172;2023-03-22T13:41:33;12.80;1.00
20182;DHT22;10250;50.756;6.172;2023-03-22T13:43:51;12.70;1.00
20182;DHT22;10250;50.756;6.172;2023-03-22T13:46:04;12.70;1.00
20182;DHT22;10250;50.756;6.172;2023-03-22T13:48:38;12.70;1.00
20182;DHT22;10250;50.756;6.172;2023-03-22T13:50:40;12.60;1.00
20182;DHT22;10250;50.756;6.172;2023-03-22T13:52:44;12.70;1.00
20182;DHT22;10250;50.756;6.172;2023-03-22T13:54:47;12.70;1.00
20182;DHT22;10250;50.756;6.172;2023-03-22T13:56:52;12.60;1.00
20182;DHT22;10250;50.756;6.172;2023-03-22T13:58:56;12.70;1.00
20182;DHT22;10250;50.756;6.172;2023-03-22T14:00:58;12.70;1.00
20182;DHT22;10250;50.756;6.172;2023-03-22T14:03:27;12.70;1.00
20182;DHT22;10250;50.756;6.172;2023-03-22T14:05:31;12.60;1.00
20182;DHT22;10250;50.756;6.172;2023-03-22T14:07:40;12.70;1.00
20182;DHT22;10250;50.756;6.172;2023-03-22T14:09:56;12.60;1.00
20182;DHT22;10250;50.756;6.172;2023-03-22T14:12:15;12.60;1.00
20182;DHT22;10250;50.756;6.172;2023-03-22T14:14:21;12.60;1.00
20182;DHT22;10250;50.756;6.172;2023-03-22T14:16:51;12.60;1.00
20182;DHT22;10250;50.756;6.172;2023-03-22T14:18:53;12.60;1.00
20182;DHT22;10250;50.756;6.172;2023-03-22T14:21:02;12.60;1.00
20182;DHT22;10250;50.756;6.172;2023-03-22T14:23:15;12.60;1.00
20182;DHT22;10250;50.756;6.172;2023-03-22T14:25:23;12.70;1.00
20182;DHT22;10250;50.756;6.172;2023-03-22T14:27:25;12.60;1.00